sensor_id;sensor_type;location;lat;lon;timestamp;P1;durP1;ratioP1;P2;durP2;ratioP2
22415;SDS011;12204;50.600;4.608;2024-02-14T00:04:41;4.03;;;1.10;;
22415;SDS011;12204;50.600;4.608;2024-02-14T00:09:45;3.38;;;1.10;;
22415;SDS011;12204;50.600;4.608;2024-02-14T00:14:48;3.88;;;1.10;;
22415;SDS011;12204;50.600;4.608;2024-02-14T00:19:53;2.92;;;1.20;;
22415;SDS011;12204;50.600;4.608;2024-02-14T00:24:57;4.80;;;1.23;;
22415;SDS011;12204;50.600;4.608;2024-02-14T00:30:00;2.85;;;1.10;;
22415;SDS011;12204;50.600;4.608;2024-02-14T00:35:06;4.22;;;1.20;;
22415;SDS011;12204;50.600;4.608;2024-02-14T00:40:11;3.17;;;1.00;;
22415;SDS011;12204;50.600;4.608;2024-02-14T00:45:15;2.97;;;1.08;;
22415;SDS011;12204;50.600;4.608;2024-02-14T00:50:19;4.95;;;1.20;;
22415;SDS011;12204;50.600;4.608;2024-02-14T00:55:23;3.17;;;1.08;;
22415;SDS011;12204;50.600;4.608;2024-02-14T01:00:26;2.90;;;1.20;;
22415;SDS011;12204;50.600;4.608;2024-02-14T01:05:31;2.95;;;1.05;;
22415;SDS011;12204;50.600;4.608;2024-02-14T01:10:35;3.05;;;1.10;;
22415;SDS011;12204;50.600;4.608;2024-02-14T01:15:39;3.53;;;1.00;;
22415;SDS011;12204;50.600;4.608;2024-02-14T01:20:44;4.65;;;1.20;;
22415;SDS011;12204;50.600;4.608;2024-02-14T01:25:48;3.72;;;1.00;;
22415;SDS011;12204;50.600;4.608;2024-02-14T01:30:51;5.30;;;1.25;;
22415;SDS011;12204;50.600;4.608;2024-02-14T01:35:56;3.15;;;1.15;;
22415;SDS011;12204;50.600;4.608;2024-02-14T01:41:00;4.22;;;1.20;;
22415;SDS011;12204;50.600;4.608;2024-02-14T01:46:05;4.22;;;1.10;;
22415;SDS011;12204;50.600;4.608;2024-02-14T01:51:11;4.45;;;1.38;;
22415;SDS011;12204;50.600;4.608;2024-02-14T01:56:19;4.30;;;1.10;;
22415;SDS011;12204;50.600;4.608;2024-02-14T02:01:22;3.08;;;1.20;;
22415;SDS011;12204;50.600;4.608;2024-02-14T02:06:28;3.88;;;1.10;;
22415;SDS011;12204;50.600;4.608;2024-02-14T02:11:42;2.10;;;1.00;;
22415;SDS011;12204;50.600;4.608;2024-02-14T02:16:49;3.75;;;1.10;;
22415;SDS011;12204;50.600;4.608;2024-02-14T02:21:54;3.47;;;1.50;;
22415;SDS011;12204;50.600;4.608;2024-02-14T02:26:59;3.88;;;1.38;;
22415;SDS011;12204;50.600;4.608;2024-02-14T02:32:03;3.35;;;1.17;;
22415;SDS011;12204;50.600;4.608;2024-02-14T02:37:08;3.35;;;1.10;;
22415;SDS011;12204;50.600;4.608;2024-02-14T02:42:13;2.95;;;1.17;;
22415;SDS011;12204;50.600;4.608;2024-02-14T02:47:16;3.28;;;1.20;;
22415;SDS011;12204;50.600;4.608;2024-02-14T02:52:19;3.85;;;1.20;;
22415;SDS011;12204;50.600;4.608;2024-02-14T02:57:24;7.30;;;1.10;;
22415;SDS011;12204;50.600;4.608;2024-02-14T03:02:28;3.80;;;1.10;;
22415;SDS011;12204;50.600;4.608;2024-02-14T03:07:31;3.55;;;1.23;;
22415;SDS011;12204;50.600;4.608;2024-02-14T03:12:36;4.00;;;1.20;;
22415;SDS011;12204;50.600;4.608;2024-02-14T03:17:40;3.33;;;1.20;;
22415;SDS011;12204;50.600;4.608;2024-02-14T03:22:44;6.07;;;1.30;;
22415;SDS011;12204;50.600;4.608;2024-02-14T03:27:50;5.25;;;1.20;;
22415;SDS011;12204;50.600;4.608;2024-02-14T03:32:54;4.40;;;1.45;;
22415;SDS011;12204;50.600;4.608;2024-02-14T03:37:59;3.88;;;1.30;;
22415;SDS011;12204;50.600;4.608;2024-02-14T03:43:06;3.30;;;1.20;;
22415;SDS011;12204;50.600;4.608;2024-02-14T03:48:13;5.50;;;1.40;;
22415;SDS011;12204;50.600;4.608;2024-02-14T03:53:17;2.58;;;1.15;;
22415;SDS011;12204;50.600;4.608;2024-02-14T03:58:22;3.92;;;1.20;;
22415;SDS011;12204;50.600;4.608;2024-02-14T04:03:25;2.78;;;1.20;;
22415;SDS011;12204;50.600;4.608;2024-02-14T04:08:30;4.10;;;1.30;;
22415;SDS011;12204;50.600;4.608;2024-02-14T04:13:36;3.75;;;1.30;;
22415;SDS011;12204;50.600;4.608;2024-02-14T04:18:39;4.00;;;1.20;;
22415;SDS011;12204;50.600;4.608;2024-02-14T04:23:43;3.72;;;1.30;;
22415;SDS011;12204;50.600;4.608;2024-02-14T04:28:48;3.38;;;1.30;;
22415;SDS011;12204;50.600;4.608;2024-02-14T04:33:51;4.05;;;1.58;;
22415;SDS011;12204;50.600;4.608;2024-02-14T04:38:57;4.40;;;1.27;;
22415;SDS011;12204;50.600;4.608;2024-02-14T04:44:02;2.85;;;1.27;;
22415;SDS011;12204;50.600;4.608;2024-02-14T04:49:07;3.13;;;1.20;;
22415;SDS011;12204;50.600;4.608;2024-02-14T04:54:11;6.93;;;1.60;;
22415;SDS011;12204;50.600;4.608;2024-02-14T04:59:19;3.00;;;1.20;;
22415;SDS011;12204;50.600;4.608;2024-02-14T05:04:22;3.47;;;1.30;;
22415;SDS011;12204;50.600;4.608;2024-02-14T05:09:26;4.25;;;1.20;;
22415;SDS011;12204;50.600;4.608;2024-02-14T05:14:30;6.18;;;1.40;;
22415;SDS011;12204;50.600;4.608;2024-02-14T05:19:34;5.22;;;1.27;;
22415;SDS011;12204;50.600;4.608;2024-02-14T05:24:38;2.75;;;1.08;;
22415;SDS011;12204;50.600;4.608;2024-02-14T05:29:42;3.45;;;1.30;;
22415;SDS011;12204;50.600;4.608;2024-02-14T05:34:46;4.13;;;1.20;;
22415;SDS011;12204;50.600;4.608;2024-02-14T05:39:50;3.47;;;1.15;;
22415;SDS011;12204;50.600;4.608;2024-02-14T05:44:56;3.08;;;1.15;;
22415;SDS011;12204;50.600;4.608;2024-02-14T05:50:00;2.95;;;1.13;;
22415;SDS011;12204;50.600;4.608;2024-02-14T05:55:04;3.28;;;1.20;;
22415;SDS011;12204;50.600;4.608;2024-02-14T06:00:12;3.17;;;1.10;;
22415;SDS011;12204;50.600;4.608;2024-02-14T06:05:16;3.10;;;1.13;;
22415;SDS011;12204;50.600;4.608;2024-02-14T06:10:20;4.38;;;1.30;;
22415;SDS011;12204;50.600;4.608;2024-02-14T06:15:25;4.32;;;1.50;;
22415;SDS011;12204;50.600;4.608;2024-02-14T06:20:28;4.03;;;1.27;;
22415;SDS011;12204;50.600;4.608;2024-02-14T06:25:32;2.70;;;1.27;;
22415;SDS011;12204;50.600;4.608;2024-02-14T06:30:37;2.80;;;1.10;;
22415;SDS011;12204;50.600;4.608;2024-02-14T06:35:41;11.93;;;1.27;;
22415;SDS011;12204;50.600;4.608;2024-02-14T06:40:45;10.05;;;1.20;;
22415;SDS011;12204;50.600;4.608;2024-02-14T06:45:51;7.78;;;1.40;;
22415;SDS011;12204;50.600;4.608;2024-02-14T06:50:54;5.50;;;1.35;;
22415;SDS011;12204;50.600;4.608;2024-02-14T06:55:58;6.85;;;1.30;;
22415;SDS011;12204;50.600;4.608;2024-02-14T07:01:03;11.98;;;1.52;;
22415;SDS011;12204;50.600;4.608;2024-02-14T07:06:06;8.05;;;1.33;;
22415;SDS011;12204;50.600;4.608;2024-02-14T07:11:10;10.32;;;1.20;;
22415;SDS011;12204;50.600;4.608;2024-02-14T07:16:15;8.02;;;1.55;;
22415;SDS011;12204;50.600;4.608;2024-02-14T07:21:18;8.02;;;1.40;;
22415;SDS011;12204;50.600;4.608;2024-02-14T07:26:22;6.50;;;1.45;;
22415;SDS011;12204;50.600;4.608;2024-02-14T07:31:29;7.03;;;1.40;;
22415;SDS011;12204;50.600;4.608;2024-02-14T07:36:34;6.70;;;1.40;;
22415;SDS011;12204;50.600;4.608;2024-02-14T07:41:38;6.35;;;1.40;;
22415;SDS011;12204;50.600;4.608;2024-02-14T07:46:43;6.68;;;1.45;;
22415;SDS011;12204;50.600;4.608;2024-02-14T07:51:47;4.38;;;1.23;;
22415;SDS011;12204;50.600;4.608;2024-02-14T07:56:51;5.57;;;1.10;;
22415;SDS011;12204;50.600;4.608;2024-02-14T08:01:56;7.03;;;1.33;;
22415;SDS011;12204;50.600;4.608;2024-02-14T08:07:00;3.75;;;1.27;;
22415;SDS011;12204;50.600;4.608;2024-02-14T08:12:04;4.75;;;1.30;;
22415;SDS011;12204;50.600;4.608;2024-02-14T08:17:10;3.53;;;1.20;;
22415;SDS011;12204;50.600;4.608;2024-02-14T08:22:14;4.18;;;1.20;;
22415;SDS011;12204;50.600;4.608;2024-02-14T08:27:17;5.45;;;1.17;;
22415;SDS011;12204;50.600;4.608;2024-02-14T08:32:22;5.63;;;1.20;;
22415;SDS011;12204;50.600;4.608;2024-02-14T08:37:27;3.60;;;1.08;;
22415;SDS011;12204;50.600;4.608;2024-02-14T08:42:31;5.50;;;1.20;;
22415;SDS011;12204;50.600;4.608;2024-02-14T08:47:36;4.35;;;1.40;;
22415;SDS011;12204;50.600;4.608;2024-02-14T08:52:39;3.88;;;1.20;;
22415;SDS011;12204;50.600;4.608;2024-02-14T08:57:43;4.45;;;1.23;;
22415;SDS011;12204;50.600;4.608;2024-02-14T09:02:51;3.97;;;1.20;;
22415;SDS011;12204;50.600;4.608;2024-02-14T09:07:55;5.57;;;1.20;;
22415;SDS011;12204;50.600;4.608;2024-02-14T09:12:58;4.95;;;1.10;;
22415;SDS011;12204;50.600;4.608;2024-02-14T09:18:05;3.92;;;1.30;;
22415;SDS011;12204;50.600;4.608;2024-02-14T09:23:08;6.22;;;1.00;;
22415;SDS011;12204;50.600;4.608;2024-02-14T09:28:12;3.13;;;1.20;;
22415;SDS011;12204;50.600;4.608;2024-02-14T09:33:17;6.10;;;1.27;;
22415;SDS011;12204;50.600;4.608;2024-02-14T09:38:22;3.53;;;1.10;;
22415;SDS011;12204;50.600;4.608;2024-02-14T09:43:27;4.65;;;1.10;;
22415;SDS011;12204;50.600;4.608;2024-02-14T09:48:39;4.13;;;1.20;;
22415;SDS011;12204;50.600;4.608;2024-02-14T09:53:44;7.20;;;1.20;;
22415;SDS011;12204;50.600;4.608;2024-02-14T09:58:48;3.60;;;1.02;;
22415;SDS011;12204;50.600;4.608;2024-02-14T10:03:59;4.05;;;1.10;;
22415;SDS011;12204;50.600;4.608;2024-02-14T10:09:03;3.35;;;1.10;;
22415;SDS011;12204;50.600;4.608;2024-02-14T10:14:06;2.50;;;1.08;;
22415;SDS011;12204;50.600;4.608;2024-02-14T10:19:18;3.97;;;1.05;;
22415;SDS011;12204;50.600;4.608;2024-02-14T10:24:22;3.90;;;1.25;;
22415;SDS011;12204;50.600;4.608;2024-02-14T10:29:28;3.72;;;1.00;;
22415;SDS011;12204;50.600;4.608;2024-02-14T10:34:33;2.60;;;1.10;;
22415;SDS011;12204;50.600;4.608;2024-02-14T10:39:37;3.65;;;1.00;;
22415;SDS011;12204;50.600;4.608;2024-02-14T10:44:44;2.92;;;1.02;;
22415;SDS011;12204;50.600;4.608;2024-02-14T10:49:52;4.70;;;1.20;;
22415;SDS011;12204;50.600;4.608;2024-02-14T10:54:57;4.65;;;1.02;;
22415;SDS011;12204;50.600;4.608;2024-02-14T11:00:06;3.05;;;1.00;;
22415;SDS011;12204;50.600;4.608;2024-02-14T11:05:17;4.30;;;1.00;;
22415;SDS011;12204;50.600;4.608;2024-02-14T11:10:25;3.55;;;1.00;;
22415;SDS011;12204;50.600;4.608;2024-02-14T11:15:35;3.40;;;1.02;;
22415;SDS011;12204;50.600;4.608;2024-02-14T11:20:40;4.43;;;1.00;;
22415;SDS011;12204;50.600;4.608;2024-02-14T11:25:47;3.13;;;1.10;;
22415;SDS011;12204;50.600;4.608;2024-02-14T11:30:51;2.72;;;1.08;;
22415;SDS011;12204;50.600;4.608;2024-02-14T11:35:57;2.80;;;1.00;;
22415;SDS011;12204;50.600;4.608;2024-02-14T11:41:11;1.55;;;0.80;;
22415;SDS011;12204;50.600;4.608;2024-02-14T11:46:15;3.28;;;1.00;;
22415;SDS011;12204;50.600;4.608;2024-02-14T11:51:20;3.58;;;0.95;;
22415;SDS011;12204;50.600;4.608;2024-02-14T11:56:24;3.10;;;0.93;;
22415;SDS011;12204;50.600;4.608;2024-02-14T12:01:28;2.67;;;0.88;;
22415;SDS011;12204;50.600;4.608;2024-02-14T12:06:35;2.60;;;0.80;;
22415;SDS011;12204;50.600;4.608;2024-02-14T12:11:43;3.15;;;1.00;;
22415;SDS011;12204;50.600;4.608;2024-02-14T12:16:47;3.25;;;1.10;;
22415;SDS011;12204;50.600;4.608;2024-02-14T12:21:52;2.10;;;1.00;;
22415;SDS011;12204;50.600;4.608;2024-02-14T12:26:57;3.30;;;1.10;;
22415;SDS011;12204;50.600;4.608;2024-02-14T12:32:04;3.13;;;1.02;;
22415;SDS011;12204;50.600;4.608;2024-02-14T12:37:10;3.47;;;1.00;;
22415;SDS011;12204;50.600;4.608;2024-02-14T12:42:13;3.67;;;0.90;;
22415;SDS011;12204;50.600;4.608;2024-02-14T12:47:19;3.03;;;1.15;;
22415;SDS011;12204;50.600;4.608;2024-02-14T12:52:25;2.65;;;0.90;;
22415;SDS011;12204;50.600;4.608;2024-02-14T12:57:28;3.83;;;0.90;;
22415;SDS011;12204;50.600;4.608;2024-02-14T13:02:32;3.00;;;1.00;;
22415;SDS011;12204;50.600;4.608;2024-02-14T13:07:37;5.43;;;1.10;;
22415;SDS011;12204;50.600;4.608;2024-02-14T13:12:40;4.15;;;1.10;;
22415;SDS011;12204;50.600;4.608;2024-02-14T13:17:45;1.85;;;0.80;;
22415;SDS011;12204;50.600;4.608;2024-02-14T13:22:50;2.15;;;0.88;;
22415;SDS011;12204;50.600;4.608;2024-02-14T13:27:54;4.57;;;1.08;;
22415;SDS011;12204;50.600;4.608;2024-02-14T13:33:00;3.20;;;0.90;;
22415;SDS011;12204;50.600;4.608;2024-02-14T13:38:06;3.10;;;0.90;;
22415;SDS011;12204;50.600;4.608;2024-02-14T13:43:11;3.42;;;1.00;;
22415;SDS011;12204;50.600;4.608;2024-02-14T13:48:17;2.25;;;0.80;;
22415;SDS011;12204;50.600;4.608;2024-02-14T13:53:22;2.53;;;0.90;;
22415;SDS011;12204;50.600;4.608;2024-02-14T13:58:26;2.40;;;0.90;;
22415;SDS011;12204;50.600;4.608;2024-02-14T14:03:29;2.72;;;0.90;;
22415;SDS011;12204;50.600;4.608;2024-02-14T14:08:35;3.17;;;0.85;;
22415;SDS011;12204;50.600;4.608;2024-02-14T14:13:39;3.15;;;0.90;;
22415;SDS011;12204;50.600;4.608;2024-02-14T14:18:42;2.50;;;0.88;;
22415;SDS011;12204;50.600;4.608;2024-02-14T14:23:47;2.53;;;1.00;;
22415;SDS011;12204;50.600;4.608;2024-02-14T14:28:51;1.83;;;0.85;;
22415;SDS011;12204;50.600;4.608;2024-02-14T14:33:55;3.45;;;1.08;;
22415;SDS011;12204;50.600;4.608;2024-02-14T14:39:01;2.22;;;0.80;;
22415;SDS011;12204;50.600;4.608;2024-02-14T14:44:04;2.28;;;0.80;;
22415;SDS011;12204;50.600;4.608;2024-02-14T14:49:08;2.05;;;0.80;;
22415;SDS011;12204;50.600;4.608;2024-02-14T14:54:13;1.42;;;0.70;;
22415;SDS011;12204;50.600;4.608;2024-02-14T14:59:19;1.88;;;0.70;;
22415;SDS011;12204;50.600;4.608;2024-02-14T15:04:24;2.75;;;0.95;;
22415;SDS011;12204;50.600;4.608;2024-02-14T15:09:29;1.88;;;0.80;;
22415;SDS011;12204;50.600;4.608;2024-02-14T15:14:36;1.50;;;0.70;;
22415;SDS011;12204;50.600;4.608;2024-02-14T15:19:39;1.50;;;0.70;;
22415;SDS011;12204;50.600;4.608;2024-02-14T15:24:44;2.40;;;0.80;;
22415;SDS011;12204;50.600;4.608;2024-02-14T15:29:48;2.17;;;0.90;;
22415;SDS011;12204;50.600;4.608;2024-02-14T15:35:10;2.58;;;0.80;;
22415;SDS011;12204;50.600;4.608;2024-02-14T15:40:15;1.73;;;0.80;;
22415;SDS011;12204;50.600;4.608;2024-02-14T15:45:18;3.15;;;0.90;;
22415;SDS011;12204;50.600;4.608;2024-02-14T15:50:22;5.03;;;1.05;;
22415;SDS011;12204;50.600;4.608;2024-02-14T15:55:28;3.05;;;0.90;;
22415;SDS011;12204;50.600;4.608;2024-02-14T16:00:31;2.78;;;0.90;;
22415;SDS011;12204;50.600;4.608;2024-02-14T16:05:36;2.22;;;0.80;;
22415;SDS011;12204;50.600;4.608;2024-02-14T16:10:41;2.92;;;0.90;;
22415;SDS011;12204;50.600;4.608;2024-02-14T16:15:46;3.08;;;1.05;;
22415;SDS011;12204;50.600;4.608;2024-02-14T16:20:50;2.65;;;0.80;;
22415;SDS011;12204;50.600;4.608;2024-02-14T16:25:55;1.88;;;0.70;;
22415;SDS011;12204;50.600;4.608;2024-02-14T16:30:58;2.88;;;0.88;;
22415;SDS011;12204;50.600;4.608;2024-02-14T16:36:02;1.90;;;0.80;;
22415;SDS011;12204;50.600;4.608;2024-02-14T16:41:07;2.35;;;0.80;;
22415;SDS011;12204;50.600;4.608;2024-02-14T16:46:11;2.10;;;0.80;;
22415;SDS011;12204;50.600;4.608;2024-02-14T16:51:15;5.63;;;1.08;;
22415;SDS011;12204;50.600;4.608;2024-02-14T16:56:20;2.50;;;0.90;;
22415;SDS011;12204;50.600;4.608;2024-02-14T17:01:25;2.08;;;0.70;;
22415;SDS011;12204;50.600;4.608;2024-02-14T17:06:28;3.53;;;0.70;;
22415;SDS011;12204;50.600;4.608;2024-02-14T17:11:33;2.15;;;0.80;;
22415;SDS011;12204;50.600;4.608;2024-02-14T17:16:37;2.15;;;0.70;;
22415;SDS011;12204;50.600;4.608;2024-02-14T17:21:43;3.25;;;0.90;;
22415;SDS011;12204;50.600;4.608;2024-02-14T17:26:48;27.63;;;2.65;;
22415;SDS011;12204;50.600;4.608;2024-02-14T17:31:52;19.27;;;2.00;;
22415;SDS011;12204;50.600;4.608;2024-02-14T17:36:56;20.05;;;2.38;;
22415;SDS011;12204;50.600;4.608;2024-02-14T17:42:01;22.15;;;2.10;;
22415;SDS011;12204;50.600;4.608;2024-02-14T17:47:05;11.52;;;1.73;;
22415;SDS011;12204;50.600;4.608;2024-02-14T17:52:08;16.98;;;1.88;;
22415;SDS011;12204;50.600;4.608;2024-02-14T17:57:13;14.48;;;1.70;;
22415;SDS011;12204;50.600;4.608;2024-02-14T18:02:17;14.23;;;2.13;;
22415;SDS011;12204;50.600;4.608;2024-02-14T18:07:21;16.10;;;1.77;;
22415;SDS011;12204;50.600;4.608;2024-02-14T18:12:26;13.43;;;1.60;;
22415;SDS011;12204;50.600;4.608;2024-02-14T18:17:30;20.55;;;1.75;;
22415;SDS011;12204;50.600;4.608;2024-02-14T18:22:35;28.55;;;1.90;;
22415;SDS011;12204;50.600;4.608;2024-02-14T18:27:40;13.55;;;1.58;;
22415;SDS011;12204;50.600;4.608;2024-02-14T18:32:43;15.10;;;1.50;;
22415;SDS011;12204;50.600;4.608;2024-02-14T18:37:47;15.50;;;1.60;;
22415;SDS011;12204;50.600;4.608;2024-02-14T18:42:52;14.20;;;1.88;;
22415;SDS011;12204;50.600;4.608;2024-02-14T18:47:56;15.75;;;1.95;;
22415;SDS011;12204;50.600;4.608;2024-02-14T18:52:59;9.55;;;1.40;;
22415;SDS011;12204;50.600;4.608;2024-02-14T18:58:04;9.98;;;1.40;;
22415;SDS011;12204;50.600;4.608;2024-02-14T19:03:08;10.20;;;1.50;;
22415;SDS011;12204;50.600;4.608;2024-02-14T19:08:11;11.90;;;1.80;;
22415;SDS011;12204;50.600;4.608;2024-02-14T19:13:16;9.98;;;1.73;;
22415;SDS011;12204;50.600;4.608;2024-02-14T19:18:23;11.10;;;1.80;;
22415;SDS011;12204;50.600;4.608;2024-02-14T19:23:27;11.60;;;1.67;;
22415;SDS011;12204;50.600;4.608;2024-02-14T19:28:38;11.70;;;1.75;;
22415;SDS011;12204;50.600;4.608;2024-02-14T19:33:41;8.48;;;1.50;;
22415;SDS011;12204;50.600;4.608;2024-02-14T19:38:47;9.95;;;1.80;;
22415;SDS011;12204;50.600;4.608;2024-02-14T19:43:52;9.98;;;1.73;;
22415;SDS011;12204;50.600;4.608;2024-02-14T19:48:56;9.60;;;1.85;;
22415;SDS011;12204;50.600;4.608;2024-02-14T19:54:00;7.68;;;1.65;;
22415;SDS011;12204;50.600;4.608;2024-02-14T19:59:06;8.07;;;1.65;;
22415;SDS011;12204;50.600;4.608;2024-02-14T20:04:09;7.68;;;1.40;;
22415;SDS011;12204;50.600;4.608;2024-02-14T20:09:13;7.13;;;1.70;;
22415;SDS011;12204;50.600;4.608;2024-02-14T20:14:18;8.30;;;2.00;;
22415;SDS011;12204;50.600;4.608;2024-02-14T20:19:22;9.95;;;1.73;;
22415;SDS011;12204;50.600;4.608;2024-02-14T20:24:25;8.93;;;1.95;;
22415;SDS011;12204;50.600;4.608;2024-02-14T20:29:30;7.45;;;1.67;;
22415;SDS011;12204;50.600;4.608;2024-02-14T20:34:34;7.80;;;1.80;;
22415;SDS011;12204;50.600;4.608;2024-02-14T20:39:38;8.40;;;1.95;;
22415;SDS011;12204;50.600;4.608;2024-02-14T20:44:42;7.50;;;1.83;;
22415;SDS011;12204;50.600;4.608;2024-02-14T20:49:46;7.53;;;1.77;;
22415;SDS011;12204;50.600;4.608;2024-02-14T20:54:52;8.85;;;1.77;;
22415;SDS011;12204;50.600;4.608;2024-02-14T20:59:58;7.13;;;1.63;;
22415;SDS011;12204;50.600;4.608;2024-02-14T21:05:02;7.13;;;1.80;;
22415;SDS011;12204;50.600;4.608;2024-02-14T21:10:07;7.97;;;1.92;;
22415;SDS011;12204;50.600;4.608;2024-02-14T21:15:14;6.63;;;1.92;;
22415;SDS011;12204;50.600;4.608;2024-02-14T21:20:17;7.10;;;1.73;;
22415;SDS011;12204;50.600;4.608;2024-02-14T21:25:21;7.05;;;1.88;;
22415;SDS011;12204;50.600;4.608;2024-02-14T21:30:26;7.05;;;1.90;;
22415;SDS011;12204;50.600;4.608;2024-02-14T21:35:32;6.40;;;1.58;;
22415;SDS011;12204;50.600;4.608;2024-02-14T21:40:37;5.15;;;1.67;;
22415;SDS011;12204;50.600;4.608;2024-02-14T21:45:42;8.65;;;1.80;;
22415;SDS011;12204;50.600;4.608;2024-02-14T21:50:45;6.90;;;1.92;;
22415;SDS011;12204;50.600;4.608;2024-02-14T21:55:49;6.95;;;1.70;;
22415;SDS011;12204;50.600;4.608;2024-02-14T22:00:54;5.40;;;1.60;;
22415;SDS011;12204;50.600;4.608;2024-02-14T22:05:58;7.20;;;1.85;;
22415;SDS011;12204;50.600;4.608;2024-02-14T22:11:01;6.97;;;1.65;;
22415;SDS011;12204;50.600;4.608;2024-02-14T22:16:06;6.50;;;1.52;;
22415;SDS011;12204;50.600;4.608;2024-02-14T22:21:12;6.10;;;1.77;;
22415;SDS011;12204;50.600;4.608;2024-02-14T22:26:16;6.03;;;1.60;;
22415;SDS011;12204;50.600;4.608;2024-02-14T22:31:21;5.20;;;1.48;;
22415;SDS011;12204;50.600;4.608;2024-02-14T22:36:25;5.50;;;1.52;;
22415;SDS011;12204;50.600;4.608;2024-02-14T22:41:28;5.97;;;1.70;;
22415;SDS011;12204;50.600;4.608;2024-02-14T22:46:36;12.88;;;2.60;;
22415;SDS011;12204;50.600;4.608;2024-02-14T22:51:41;12.65;;;2.40;;
22415;SDS011;12204;50.600;4.608;2024-02-14T22:56:45;9.55;;;2.47;;
22415;SDS011;12204;50.600;4.608;2024-02-14T23:01:50;8.73;;;2.40;;
22415;SDS011;12204;50.600;4.608;2024-02-14T23:06:53;10.95;;;2.60;;
22415;SDS011;12204;50.600;4.608;2024-02-14T23:11:57;8.05;;;2.40;;
22415;SDS011;12204;50.600;4.608;2024-02-14T23:17:02;8.10;;;2.25;;
22415;SDS011;12204;50.600;4.608;2024-02-14T23:22:06;9.43;;;2.47;;
22415;SDS011;12204;50.600;4.608;2024-02-14T23:27:09;7.90;;;2.40;;
22415;SDS011;12204;50.600;4.608;2024-02-14T23:32:16;8.43;;;2.50;;
22415;SDS011;12204;50.600;4.608;2024-02-14T23:37:20;8.88;;;2.20;;
22415;SDS011;12204;50.600;4.608;2024-02-14T23:42:23;7.70;;;2.35;;
22415;SDS011;12204;50.600;4.608;2024-02-14T23:47:28;9.02;;;2.03;;
22415;SDS011;12204;50.600;4.608;2024-02-14T23:52:34;7.63;;;2.20;;
22415;SDS011;12204;50.600;4.608;2024-02-14T23:57:39;9.95;;;2.83;;
